sensor_id;sensor_type;location;lat;lon;timestamp;P1;durP1;ratioP1;P2;durP2;ratioP2
69188;SDS011;56302;52.322;5.926;2022-08-11T00:02:12;6.82;;;2.47;;
69188;SDS011;56302;52.322;5.926;2022-08-11T00:04:38;6.13;;;2.53;;
69188;SDS011;56302;52.322;5.926;2022-08-11T00:07:04;3.78;;;2.33;;
69188;SDS011;56302;52.322;5.926;2022-08-11T00:09:32;5.10;;;2.25;;
69188;SDS011;56302;52.322;5.926;2022-08-11T00:12:01;3.90;;;2.20;;
69188;SDS011;56302;52.322;5.926;2022-08-11T00:14:28;6.57;;;2.72;;
69188;SDS011;56302;52.322;5.926;2022-08-11T00:16:58;5.90;;;2.50;;
69188;SDS011;56302;52.322;5.926;2022-08-11T00:19:31;6.55;;;2.50;;
69188;SDS011;56302;52.322;5.926;2022-08-11T00:21:59;5.22;;;2.58;;
69188;SDS011;56302;52.322;5.926;2022-08-11T00:24:31;4.50;;;2.42;;
69188;SDS011;56302;52.322;5.926;2022-08-11T00:27:04;4.18;;;2.40;;
69188;SDS011;56302;52.322;5.926;2022-08-11T00:29:30;6.87;;;2.70;;
69188;SDS011;56302;52.322;5.926;2022-08-11T00:31:57;4.95;;;2.40;;
69188;SDS011;56302;52.322;5.926;2022-08-11T00:34:29;5.18;;;2.35;;
69188;SDS011;56302;52.322;5.926;2022-08-11T00:39:29;6.90;;;2.40;;
69188;SDS011;56302;52.322;5.926;2022-08-11T00:44:27;5.50;;;2.60;;
69188;SDS011;56302;52.322;5.926;2022-08-11T00:47:14;5.30;;;2.45;;
69188;SDS011;56302;52.322;5.926;2022-08-11T00:52:35;5.35;;;2.35;;
69188;SDS011;56302;52.322;5.926;2022-08-11T01:04:15;4.50;;;2.70;;
69188;SDS011;56302;52.322;5.926;2022-08-11T01:10:05;5.30;;;2.10;;
69188;SDS011;56302;52.322;5.926;2022-08-11T01:15:51;5.03;;;2.38;;
69188;SDS011;56302;52.322;5.926;2022-08-11T01:28:01;6.25;;;2.42;;
69188;SDS011;56302;52.322;5.926;2022-08-11T01:48:07;6.35;;;2.95;;
69188;SDS011;56302;52.322;5.926;2022-08-11T01:53:20;6.53;;;2.33;;
69188;SDS011;56302;52.322;5.926;2022-08-11T01:58:59;5.50;;;2.50;;
69188;SDS011;56302;52.322;5.926;2022-08-11T02:15:13;5.75;;;2.40;;
69188;SDS011;56302;52.322;5.926;2022-08-11T02:20:34;5.43;;;2.53;;
69188;SDS011;56302;52.322;5.926;2022-08-11T02:24:10;3.95;;;2.13;;
69188;SDS011;56302;52.322;5.926;2022-08-11T02:26:31;4.95;;;3.33;;
69188;SDS011;56302;52.322;5.926;2022-08-11T02:44:07;5.80;;;2.60;;
69188;SDS011;56302;52.322;5.926;2022-08-11T02:52:23;7.93;;;2.38;;
69188;SDS011;56302;52.322;5.926;2022-08-11T02:57:58;5.80;;;2.83;;
69188;SDS011;56302;52.322;5.926;2022-08-11T03:00:39;4.57;;;2.90;;
69188;SDS011;56302;52.322;5.926;2022-08-11T03:11:54;7.43;;;3.10;;
69188;SDS011;56302;52.322;5.926;2022-08-11T03:14:46;7.43;;;2.83;;
69188;SDS011;56302;52.322;5.926;2022-08-11T03:20:37;6.28;;;2.75;;
69188;SDS011;56302;52.322;5.926;2022-08-11T03:23:28;7.47;;;3.35;;
69188;SDS011;56302;52.322;5.926;2022-08-11T03:26:08;5.07;;;2.83;;
69188;SDS011;56302;52.322;5.926;2022-08-11T03:34:27;6.97;;;3.17;;
69188;SDS011;56302;52.322;5.926;2022-08-11T03:42:34;6.97;;;2.90;;
69188;SDS011;56302;52.322;5.926;2022-08-11T03:45:25;6.33;;;3.33;;
69188;SDS011;56302;52.322;5.926;2022-08-11T03:48:12;6.30;;;3.08;;
69188;SDS011;56302;52.322;5.926;2022-08-11T03:59:48;7.47;;;2.87;;
69188;SDS011;56302;52.322;5.926;2022-08-11T04:17:31;5.93;;;2.88;;
69188;SDS011;56302;52.322;5.926;2022-08-11T04:22:44;6.03;;;3.20;;
69188;SDS011;56302;52.322;5.926;2022-08-11T04:25:43;5.28;;;3.20;;
69188;SDS011;56302;52.322;5.926;2022-08-11T04:31:23;6.63;;;2.80;;
69188;SDS011;56302;52.322;5.926;2022-08-11T04:55:04;18.42;;;3.55;;
69188;SDS011;56302;52.322;5.926;2022-08-11T05:07:26;6.97;;;3.20;;
69188;SDS011;56302;52.322;5.926;2022-08-11T05:13:09;10.48;;;3.30;;
69188;SDS011;56302;52.322;5.926;2022-08-11T05:15:55;6.07;;;3.60;;
69188;SDS011;56302;52.322;5.926;2022-08-11T05:18:49;6.35;;;3.38;;
69188;SDS011;56302;52.322;5.926;2022-08-11T05:21:36;6.90;;;3.90;;
69188;SDS011;56302;52.322;5.926;2022-08-11T05:24:45;6.20;;;3.45;;
69188;SDS011;56302;52.322;5.926;2022-08-11T05:27:49;7.15;;;3.45;;
69188;SDS011;56302;52.322;5.926;2022-08-11T05:30:41;5.97;;;3.72;;
69188;SDS011;56302;52.322;5.926;2022-08-11T05:33:31;6.10;;;3.42;;
69188;SDS011;56302;52.322;5.926;2022-08-11T05:38:59;5.20;;;3.40;;
69188;SDS011;56302;52.322;5.926;2022-08-11T05:41:46;10.23;;;4.28;;
69188;SDS011;56302;52.322;5.926;2022-08-11T05:44:31;7.93;;;3.78;;
69188;SDS011;56302;52.322;5.926;2022-08-11T05:47:21;7.00;;;3.78;;
69188;SDS011;56302;52.322;5.926;2022-08-11T05:50:10;6.90;;;3.67;;
69188;SDS011;56302;52.322;5.926;2022-08-11T05:52:56;7.13;;;3.90;;
69188;SDS011;56302;52.322;5.926;2022-08-11T05:55:42;7.93;;;3.67;;
69188;SDS011;56302;52.322;5.926;2022-08-11T05:58:37;8.00;;;3.90;;
69188;SDS011;56302;52.322;5.926;2022-08-11T06:01:04;6.15;;;3.65;;
69188;SDS011;56302;52.322;5.926;2022-08-11T06:03:31;6.10;;;3.88;;
69188;SDS011;56302;52.322;5.926;2022-08-11T06:06:21;6.65;;;4.20;;
69188;SDS011;56302;52.322;5.926;2022-08-11T06:08:48;7.65;;;4.35;;
69188;SDS011;56302;52.322;5.926;2022-08-11T06:11:19;7.90;;;4.40;;
69188;SDS011;56302;52.322;5.926;2022-08-11T06:13:45;8.30;;;5.30;;
69188;SDS011;56302;52.322;5.926;2022-08-11T06:16:12;18.90;;;5.97;;
69188;SDS011;56302;52.322;5.926;2022-08-11T06:18:43;13.45;;;5.68;;
69188;SDS011;56302;52.322;5.926;2022-08-11T06:21:11;19.00;;;6.90;;
69188;SDS011;56302;52.322;5.926;2022-08-11T06:23:37;8.38;;;5.75;;
69188;SDS011;56302;52.322;5.926;2022-08-11T06:26:11;12.98;;;7.30;;
69188;SDS011;56302;52.322;5.926;2022-08-11T06:28:39;13.57;;;7.43;;
69188;SDS011;56302;52.322;5.926;2022-08-11T06:31:12;12.20;;;7.97;;
69188;SDS011;56302;52.322;5.926;2022-08-11T06:36:16;12.13;;;6.85;;
69188;SDS011;56302;52.322;5.926;2022-08-11T06:39:07;12.38;;;6.85;;
69188;SDS011;56302;52.322;5.926;2022-08-11T06:42:33;16.20;;;7.20;;
69188;SDS011;56302;52.322;5.926;2022-08-11T06:44:42;11.60;;;6.97;;
69188;SDS011;56302;52.322;5.926;2022-08-11T06:47:13;8.77;;;6.40;;
69188;SDS011;56302;52.322;5.926;2022-08-11T06:49:43;10.27;;;5.72;;
69188;SDS011;56302;52.322;5.926;2022-08-11T06:52:33;12.73;;;6.68;;
69188;SDS011;56302;52.322;5.926;2022-08-11T06:57:38;11.05;;;6.78;;
69188;SDS011;56302;52.322;5.926;2022-08-11T07:00:27;11.00;;;5.75;;
69188;SDS011;56302;52.322;5.926;2022-08-11T07:03:02;9.07;;;5.68;;
69188;SDS011;56302;52.322;5.926;2022-08-11T07:05:38;9.32;;;4.70;;
69188;SDS011;56302;52.322;5.926;2022-08-11T07:14:39;7.97;;;4.75;;
69188;SDS011;56302;52.322;5.926;2022-08-11T07:17:29;12.70;;;5.28;;
69188;SDS011;56302;52.322;5.926;2022-08-11T07:19:59;9.25;;;4.72;;
69188;SDS011;56302;52.322;5.926;2022-08-11T07:22:48;8.27;;;4.10;;
69188;SDS011;56302;52.322;5.926;2022-08-11T07:25:41;8.68;;;4.22;;
69188;SDS011;56302;52.322;5.926;2022-08-11T07:28:29;8.15;;;3.97;;
69188;SDS011;56302;52.322;5.926;2022-08-11T07:31:20;7.65;;;4.50;;
69188;SDS011;56302;52.322;5.926;2022-08-11T07:33:59;6.78;;;3.80;;
69188;SDS011;56302;52.322;5.926;2022-08-11T07:36:31;8.67;;;3.70;;
69188;SDS011;56302;52.322;5.926;2022-08-11T07:38:59;8.52;;;4.32;;
69188;SDS011;56302;52.322;5.926;2022-08-11T07:41:25;6.80;;;4.13;;
69188;SDS011;56302;52.322;5.926;2022-08-11T07:43:54;7.30;;;4.40;;
69188;SDS011;56302;52.322;5.926;2022-08-11T07:46:38;9.43;;;4.00;;
69188;SDS011;56302;52.322;5.926;2022-08-11T07:49:25;7.13;;;4.00;;
69188;SDS011;56302;52.322;5.926;2022-08-11T07:52:10;7.75;;;3.80;;
69188;SDS011;56302;52.322;5.926;2022-08-11T07:54:54;7.63;;;3.67;;
69188;SDS011;56302;52.322;5.926;2022-08-11T07:57:26;6.65;;;3.60;;
69188;SDS011;56302;52.322;5.926;2022-08-11T08:00:21;9.25;;;4.28;;
69188;SDS011;56302;52.322;5.926;2022-08-11T08:03:05;8.33;;;3.77;;
69188;SDS011;56302;52.322;5.926;2022-08-11T08:05:51;6.65;;;4.13;;
69188;SDS011;56302;52.322;5.926;2022-08-11T08:08:36;7.72;;;3.75;;
69188;SDS011;56302;52.322;5.926;2022-08-11T08:11:22;6.05;;;3.60;;
69188;SDS011;56302;52.322;5.926;2022-08-11T08:14:08;6.65;;;3.58;;
69188;SDS011;56302;52.322;5.926;2022-08-11T08:16:52;7.30;;;3.23;;
69188;SDS011;56302;52.322;5.926;2022-08-11T08:19:38;6.18;;;4.20;;
69188;SDS011;56302;52.322;5.926;2022-08-11T08:22:08;103.93;;;9.48;;
69188;SDS011;56302;52.322;5.926;2022-08-11T08:24:35;14.20;;;3.72;;
69188;SDS011;56302;52.322;5.926;2022-08-11T08:27:05;8.52;;;3.40;;
69188;SDS011;56302;52.322;5.926;2022-08-11T08:29:32;14.00;;;3.97;;
69188;SDS011;56302;52.322;5.926;2022-08-11T08:32:19;10.32;;;3.15;;
69188;SDS011;56302;52.322;5.926;2022-08-11T08:34:45;6.50;;;3.15;;
69188;SDS011;56302;52.322;5.926;2022-08-11T08:37:19;6.45;;;2.88;;
69188;SDS011;56302;52.322;5.926;2022-08-11T08:39:47;8.05;;;2.70;;
69188;SDS011;56302;52.322;5.926;2022-08-11T08:42:16;7.63;;;2.80;;
69188;SDS011;56302;52.322;5.926;2022-08-11T08:44:46;11.65;;;2.85;;
69188;SDS011;56302;52.322;5.926;2022-08-11T08:47:17;11.82;;;2.80;;
69188;SDS011;56302;52.322;5.926;2022-08-11T08:49:45;5.82;;;3.05;;
69188;SDS011;56302;52.322;5.926;2022-08-11T08:52:18;8.73;;;2.97;;
69188;SDS011;56302;52.322;5.926;2022-08-11T08:54:47;8.82;;;3.10;;
69188;SDS011;56302;52.322;5.926;2022-08-11T08:57:18;9.10;;;2.92;;
69188;SDS011;56302;52.322;5.926;2022-08-11T08:59:51;11.65;;;2.78;;
69188;SDS011;56302;52.322;5.926;2022-08-11T09:02:17;8.07;;;2.87;;
69188;SDS011;56302;52.322;5.926;2022-08-11T09:04:47;6.03;;;2.67;;
69188;SDS011;56302;52.322;5.926;2022-08-11T09:07:16;8.77;;;2.92;;
69188;SDS011;56302;52.322;5.926;2022-08-11T09:09:43;7.68;;;2.47;;
69188;SDS011;56302;52.322;5.926;2022-08-11T09:12:13;6.15;;;2.28;;
69188;SDS011;56302;52.322;5.926;2022-08-11T09:14:41;5.77;;;2.40;;
69188;SDS011;56302;52.322;5.926;2022-08-11T09:17:26;6.88;;;2.90;;
69188;SDS011;56302;52.322;5.926;2022-08-11T09:19:58;4.70;;;2.60;;
69188;SDS011;56302;52.322;5.926;2022-08-11T09:22:52;5.57;;;2.70;;
69188;SDS011;56302;52.322;5.926;2022-08-11T09:25:39;7.38;;;3.08;;
69188;SDS011;56302;52.322;5.926;2022-08-11T09:28:24;6.43;;;2.67;;
69188;SDS011;56302;52.322;5.926;2022-08-11T09:30:55;4.28;;;2.92;;
69188;SDS011;56302;52.322;5.926;2022-08-11T09:33:24;6.65;;;2.70;;
69188;SDS011;56302;52.322;5.926;2022-08-11T09:35:51;7.40;;;2.67;;
69188;SDS011;56302;52.322;5.926;2022-08-11T09:38:18;8.23;;;2.73;;
69188;SDS011;56302;52.322;5.926;2022-08-11T09:41:05;8.68;;;3.17;;
69188;SDS011;56302;52.322;5.926;2022-08-11T09:43:32;6.05;;;2.00;;
69188;SDS011;56302;52.322;5.926;2022-08-11T09:46:22;6.40;;;2.38;;
69188;SDS011;56302;52.322;5.926;2022-08-11T09:48:51;8.40;;;3.03;;
69188;SDS011;56302;52.322;5.926;2022-08-11T09:51:20;5.72;;;2.65;;
69188;SDS011;56302;52.322;5.926;2022-08-11T09:53:47;11.65;;;2.40;;
69188;SDS011;56302;52.322;5.926;2022-08-11T09:56:14;4.15;;;2.60;;
69188;SDS011;56302;52.322;5.926;2022-08-11T09:59:00;6.60;;;2.20;;
69188;SDS011;56302;52.322;5.926;2022-08-11T10:01:36;12.60;;;2.70;;
69188;SDS011;56302;52.322;5.926;2022-08-11T10:04:13;7.25;;;3.00;;
69188;SDS011;56302;52.322;5.926;2022-08-11T10:06:41;6.00;;;2.63;;
69188;SDS011;56302;52.322;5.926;2022-08-11T10:09:27;6.68;;;2.88;;
69188;SDS011;56302;52.322;5.926;2022-08-11T10:12:01;3.92;;;2.38;;
69188;SDS011;56302;52.322;5.926;2022-08-11T10:14:30;7.17;;;2.67;;
69188;SDS011;56302;52.322;5.926;2022-08-11T10:17:15;12.32;;;2.78;;
69188;SDS011;56302;52.322;5.926;2022-08-11T10:19:45;9.52;;;2.35;;
69188;SDS011;56302;52.322;5.926;2022-08-11T10:22:12;7.10;;;2.40;;
69188;SDS011;56302;52.322;5.926;2022-08-11T10:24:59;4.78;;;2.38;;
69188;SDS011;56302;52.322;5.926;2022-08-11T10:27:44;5.47;;;2.47;;
69188;SDS011;56302;52.322;5.926;2022-08-11T10:30:13;5.00;;;2.00;;
69188;SDS011;56302;52.322;5.926;2022-08-11T10:32:58;6.65;;;2.60;;
69188;SDS011;56302;52.322;5.926;2022-08-11T10:35:42;3.88;;;2.20;;
69188;SDS011;56302;52.322;5.926;2022-08-11T10:38:09;7.57;;;2.15;;
69188;SDS011;56302;52.322;5.926;2022-08-11T10:40:39;6.17;;;3.03;;
69188;SDS011;56302;52.322;5.926;2022-08-11T10:43:09;4.32;;;2.60;;
69188;SDS011;56302;52.322;5.926;2022-08-11T10:45:39;4.80;;;2.00;;
69188;SDS011;56302;52.322;5.926;2022-08-11T10:48:25;9.10;;;1.90;;
69188;SDS011;56302;52.322;5.926;2022-08-11T10:50:53;7.32;;;2.40;;
69188;SDS011;56302;52.322;5.926;2022-08-11T10:53:38;7.87;;;2.47;;
69188;SDS011;56302;52.322;5.926;2022-08-11T10:56:32;4.32;;;2.20;;
69188;SDS011;56302;52.322;5.926;2022-08-11T10:59:20;6.03;;;1.92;;
69188;SDS011;56302;52.322;5.926;2022-08-11T11:01:47;5.38;;;2.08;;
69188;SDS011;56302;52.322;5.926;2022-08-11T11:04:18;7.10;;;2.47;;
69188;SDS011;56302;52.322;5.926;2022-08-11T11:09:43;9.00;;;2.13;;
69188;SDS011;56302;52.322;5.926;2022-08-11T11:15:06;4.03;;;1.88;;
69188;SDS011;56302;52.322;5.926;2022-08-11T11:17:55;7.35;;;2.10;;
69188;SDS011;56302;52.322;5.926;2022-08-11T11:23:00;4.82;;;1.75;;
69188;SDS011;56302;52.322;5.926;2022-08-11T11:25:45;7.35;;;2.10;;
69188;SDS011;56302;52.322;5.926;2022-08-11T11:28:47;5.13;;;1.80;;
69188;SDS011;56302;52.322;5.926;2022-08-11T11:34:34;11.63;;;2.07;;
69188;SDS011;56302;52.322;5.926;2022-08-11T11:37:22;4.18;;;2.13;;
69188;SDS011;56302;52.322;5.926;2022-08-11T11:39:48;4.38;;;1.98;;
69188;SDS011;56302;52.322;5.926;2022-08-11T11:42:14;5.18;;;2.10;;
69188;SDS011;56302;52.322;5.926;2022-08-11T11:44:42;5.90;;;2.35;;
69188;SDS011;56302;52.322;5.926;2022-08-11T11:47:10;9.60;;;2.30;;
69188;SDS011;56302;52.322;5.926;2022-08-11T11:49:37;8.85;;;1.92;;
69188;SDS011;56302;52.322;5.926;2022-08-11T11:52:07;5.30;;;2.30;;
69188;SDS011;56302;52.322;5.926;2022-08-11T11:54:33;4.25;;;2.00;;
69188;SDS011;56302;52.322;5.926;2022-08-11T11:57:00;3.80;;;1.90;;
69188;SDS011;56302;52.322;5.926;2022-08-11T11:59:49;4.37;;;2.17;;
69188;SDS011;56302;52.322;5.926;2022-08-11T12:02:35;4.22;;;2.17;;
69188;SDS011;56302;52.322;5.926;2022-08-11T12:05:01;7.00;;;2.20;;
69188;SDS011;56302;52.322;5.926;2022-08-11T12:07:28;3.85;;;2.30;;
69188;SDS011;56302;52.322;5.926;2022-08-11T12:10:14;4.95;;;2.20;;
69188;SDS011;56302;52.322;5.926;2022-08-11T12:12:44;5.47;;;2.20;;
69188;SDS011;56302;52.322;5.926;2022-08-11T12:15:29;4.72;;;1.95;;
69188;SDS011;56302;52.322;5.926;2022-08-11T12:17:55;11.32;;;2.67;;
69188;SDS011;56302;52.322;5.926;2022-08-11T12:20:22;4.07;;;2.30;;
69188;SDS011;56302;52.322;5.926;2022-08-11T12:22:48;4.00;;;2.03;;
69188;SDS011;56302;52.322;5.926;2022-08-11T12:25:33;4.80;;;2.20;;
69188;SDS011;56302;52.322;5.926;2022-08-11T12:28:18;4.47;;;2.22;;
69188;SDS011;56302;52.322;5.926;2022-08-11T12:30:47;4.93;;;2.42;;
69188;SDS011;56302;52.322;5.926;2022-08-11T12:33:16;6.53;;;3.05;;
69188;SDS011;56302;52.322;5.926;2022-08-11T12:35:43;4.30;;;2.30;;
69188;SDS011;56302;52.322;5.926;2022-08-11T12:38:11;6.87;;;2.20;;
69188;SDS011;56302;52.322;5.926;2022-08-11T12:40:38;6.53;;;2.10;;
69188;SDS011;56302;52.322;5.926;2022-08-11T12:43:23;5.93;;;1.90;;
69188;SDS011;56302;52.322;5.926;2022-08-11T12:46:13;4.38;;;2.20;;
69188;SDS011;56302;52.322;5.926;2022-08-11T12:48:46;10.15;;;2.25;;
69188;SDS011;56302;52.322;5.926;2022-08-11T12:51:35;4.77;;;2.07;;
69188;SDS011;56302;52.322;5.926;2022-08-11T12:57:16;5.57;;;2.50;;
69188;SDS011;56302;52.322;5.926;2022-08-11T13:00:07;6.65;;;2.30;;
69188;SDS011;56302;52.322;5.926;2022-08-11T13:02:53;17.67;;;2.63;;
69188;SDS011;56302;52.322;5.926;2022-08-11T13:05:39;6.40;;;2.83;;
69188;SDS011;56302;52.322;5.926;2022-08-11T13:08:07;3.75;;;2.00;;
69188;SDS011;56302;52.322;5.926;2022-08-11T13:10:33;4.93;;;1.70;;
69188;SDS011;56302;52.322;5.926;2022-08-11T13:13:22;5.18;;;1.95;;
69188;SDS011;56302;52.322;5.926;2022-08-11T13:15:48;5.03;;;2.20;;
69188;SDS011;56302;52.322;5.926;2022-08-11T13:18:16;5.13;;;1.90;;
69188;SDS011;56302;52.322;5.926;2022-08-11T13:20:47;6.57;;;2.03;;
69188;SDS011;56302;52.322;5.926;2022-08-11T13:23:13;8.93;;;2.40;;
69188;SDS011;56302;52.322;5.926;2022-08-11T13:25:40;4.38;;;2.42;;
69188;SDS011;56302;52.322;5.926;2022-08-11T13:28:08;4.47;;;1.85;;
69188;SDS011;56302;52.322;5.926;2022-08-11T13:30:35;6.23;;;1.80;;
69188;SDS011;56302;52.322;5.926;2022-08-11T13:33:22;5.70;;;1.92;;
69188;SDS011;56302;52.322;5.926;2022-08-11T13:35:51;5.40;;;2.67;;
69188;SDS011;56302;52.322;5.926;2022-08-11T13:38:20;6.82;;;2.63;;
69188;SDS011;56302;52.322;5.926;2022-08-11T13:40:48;4.47;;;2.05;;
69188;SDS011;56302;52.322;5.926;2022-08-11T13:43:15;3.47;;;2.10;;
69188;SDS011;56302;52.322;5.926;2022-08-11T13:45:44;5.75;;;2.13;;
69188;SDS011;56302;52.322;5.926;2022-08-11T13:48:11;5.22;;;2.08;;
69188;SDS011;56302;52.322;5.926;2022-08-11T13:50:38;5.03;;;2.00;;
69188;SDS011;56302;52.322;5.926;2022-08-11T13:53:23;5.32;;;2.45;;
69188;SDS011;56302;52.322;5.926;2022-08-11T13:55:50;5.60;;;1.90;;
69188;SDS011;56302;52.322;5.926;2022-08-11T13:58:17;4.57;;;2.03;;
69188;SDS011;56302;52.322;5.926;2022-08-11T14:00:44;5.90;;;1.70;;
69188;SDS011;56302;52.322;5.926;2022-08-11T14:03:13;6.35;;;2.05;;
69188;SDS011;56302;52.322;5.926;2022-08-11T14:05:47;5.22;;;1.83;;
69188;SDS011;56302;52.322;5.926;2022-08-11T14:08:16;4.83;;;2.00;;
69188;SDS011;56302;52.322;5.926;2022-08-11T14:10:46;6.78;;;2.28;;
69188;SDS011;56302;52.322;5.926;2022-08-11T14:13:38;5.35;;;1.73;;
69188;SDS011;56302;52.322;5.926;2022-08-11T14:16:10;4.07;;;1.58;;
69188;SDS011;56302;52.322;5.926;2022-08-11T14:18:46;5.72;;;2.10;;
69188;SDS011;56302;52.322;5.926;2022-08-11T14:21:15;5.47;;;2.00;;
69188;SDS011;56302;52.322;5.926;2022-08-11T14:24:00;6.00;;;2.17;;
69188;SDS011;56302;52.322;5.926;2022-08-11T14:26:28;5.30;;;2.20;;
69188;SDS011;56302;52.322;5.926;2022-08-11T14:29:01;6.25;;;1.73;;
69188;SDS011;56302;52.322;5.926;2022-08-11T14:31:30;6.25;;;2.33;;
69188;SDS011;56302;52.322;5.926;2022-08-11T14:34:00;5.93;;;1.60;;
69188;SDS011;56302;52.322;5.926;2022-08-11T14:39:00;5.07;;;2.00;;
69188;SDS011;56302;52.322;5.926;2022-08-11T14:41:36;6.50;;;1.85;;
69188;SDS011;56302;52.322;5.926;2022-08-11T14:44:25;3.55;;;2.30;;
69188;SDS011;56302;52.322;5.926;2022-08-11T14:47:11;8.53;;;2.07;;
69188;SDS011;56302;52.322;5.926;2022-08-11T14:49:41;5.18;;;1.60;;
69188;SDS011;56302;52.322;5.926;2022-08-11T14:52:08;3.45;;;1.42;;
69188;SDS011;56302;52.322;5.926;2022-08-11T14:54:40;8.35;;;1.63;;
69188;SDS011;56302;52.322;5.926;2022-08-11T14:57:28;4.78;;;2.15;;
69188;SDS011;56302;52.322;5.926;2022-08-11T14:59:56;5.40;;;2.10;;
69188;SDS011;56302;52.322;5.926;2022-08-11T15:02:24;4.47;;;1.90;;
69188;SDS011;56302;52.322;5.926;2022-08-11T15:05:09;3.40;;;1.88;;
69188;SDS011;56302;52.322;5.926;2022-08-11T15:07:35;5.03;;;1.90;;
69188;SDS011;56302;52.322;5.926;2022-08-11T15:10:03;5.47;;;1.80;;
69188;SDS011;56302;52.322;5.926;2022-08-11T15:12:32;7.20;;;1.73;;
69188;SDS011;56302;52.322;5.926;2022-08-11T15:14:59;5.95;;;1.45;;
69188;SDS011;56302;52.322;5.926;2022-08-11T15:17:50;4.13;;;1.73;;
69188;SDS011;56302;52.322;5.926;2022-08-11T15:20:17;3.78;;;1.95;;
69188;SDS011;56302;52.322;5.926;2022-08-11T15:23:03;4.38;;;1.70;;
69188;SDS011;56302;52.322;5.926;2022-08-11T15:28:35;4.25;;;1.50;;
69188;SDS011;56302;52.322;5.926;2022-08-11T15:31:22;3.65;;;1.70;;
69188;SDS011;56302;52.322;5.926;2022-08-11T15:34:09;4.13;;;2.08;;
69188;SDS011;56302;52.322;5.926;2022-08-11T15:36:58;3.33;;;2.10;;
69188;SDS011;56302;52.322;5.926;2022-08-11T15:40:10;4.70;;;1.80;;
69188;SDS011;56302;52.322;5.926;2022-08-11T15:43:01;6.32;;;1.60;;
69188;SDS011;56302;52.322;5.926;2022-08-11T15:45:51;5.70;;;1.88;;
69188;SDS011;56302;52.322;5.926;2022-08-11T15:50:52;7.30;;;1.92;;
69188;SDS011;56302;52.322;5.926;2022-08-11T15:53:31;4.83;;;1.90;;
69188;SDS011;56302;52.322;5.926;2022-08-11T15:56:03;3.95;;;1.85;;
69188;SDS011;56302;52.322;5.926;2022-08-11T15:58:31;3.42;;;1.75;;
69188;SDS011;56302;52.322;5.926;2022-08-11T16:01:19;3.55;;;1.48;;
69188;SDS011;56302;52.322;5.926;2022-08-11T16:04:09;4.20;;;1.88;;
69188;SDS011;56302;52.322;5.926;2022-08-11T16:06:43;3.83;;;1.50;;
69188;SDS011;56302;52.322;5.926;2022-08-11T16:09:13;3.97;;;1.80;;
69188;SDS011;56302;52.322;5.926;2022-08-11T16:11:41;3.92;;;1.90;;
69188;SDS011;56302;52.322;5.926;2022-08-11T16:14:10;4.85;;;1.58;;
69188;SDS011;56302;52.322;5.926;2022-08-11T16:16:56;3.67;;;1.77;;
69188;SDS011;56302;52.322;5.926;2022-08-11T16:19:24;5.37;;;2.07;;
69188;SDS011;56302;52.322;5.926;2022-08-11T16:21:52;5.60;;;1.85;;
69188;SDS011;56302;52.322;5.926;2022-08-11T16:24:20;3.65;;;1.75;;
69188;SDS011;56302;52.322;5.926;2022-08-11T16:26:48;4.10;;;1.30;;
69188;SDS011;56302;52.322;5.926;2022-08-11T16:29:15;5.07;;;1.50;;
69188;SDS011;56302;52.322;5.926;2022-08-11T16:31:42;4.43;;;1.67;;
69188;SDS011;56302;52.322;5.926;2022-08-11T16:34:28;4.50;;;1.67;;
69188;SDS011;56302;52.322;5.926;2022-08-11T16:37:14;3.22;;;1.58;;
69188;SDS011;56302;52.322;5.926;2022-08-11T16:39:58;2.85;;;1.23;;
69188;SDS011;56302;52.322;5.926;2022-08-11T16:42:24;3.53;;;1.45;;
69188;SDS011;56302;52.322;5.926;2022-08-11T16:45:09;3.73;;;1.60;;
69188;SDS011;56302;52.322;5.926;2022-08-11T16:47:53;4.30;;;1.58;;
69188;SDS011;56302;52.322;5.926;2022-08-11T16:50:18;2.60;;;1.20;;
69188;SDS011;56302;52.322;5.926;2022-08-11T16:52:44;3.63;;;1.57;;
69188;SDS011;56302;52.322;5.926;2022-08-11T16:55:10;4.20;;;1.40;;
69188;SDS011;56302;52.322;5.926;2022-08-11T16:57:36;4.63;;;1.50;;
69188;SDS011;56302;52.322;5.926;2022-08-11T17:00:21;3.38;;;1.52;;
69188;SDS011;56302;52.322;5.926;2022-08-11T17:02:51;3.65;;;1.50;;
69188;SDS011;56302;52.322;5.926;2022-08-11T17:05:38;7.15;;;1.73;;
69188;SDS011;56302;52.322;5.926;2022-08-11T17:08:34;4.87;;;1.30;;
69188;SDS011;56302;52.322;5.926;2022-08-11T17:11:31;4.43;;;1.40;;
69188;SDS011;56302;52.322;5.926;2022-08-11T17:14:20;5.93;;;1.90;;
69188;SDS011;56302;52.322;5.926;2022-08-11T17:16:49;4.22;;;1.40;;
69188;SDS011;56302;52.322;5.926;2022-08-11T17:19:25;4.63;;;1.70;;
69188;SDS011;56302;52.322;5.926;2022-08-11T17:21:55;5.07;;;1.53;;
69188;SDS011;56302;52.322;5.926;2022-08-11T17:24:42;4.40;;;1.60;;
69188;SDS011;56302;52.322;5.926;2022-08-11T17:27:11;4.43;;;1.70;;
69188;SDS011;56302;52.322;5.926;2022-08-11T17:29:47;3.05;;;1.65;;
69188;SDS011;56302;52.322;5.926;2022-08-11T17:32:17;4.65;;;1.48;;
69188;SDS011;56302;52.322;5.926;2022-08-11T17:35:06;4.30;;;1.40;;
69188;SDS011;56302;52.322;5.926;2022-08-11T17:37:54;4.75;;;1.50;;
69188;SDS011;56302;52.322;5.926;2022-08-11T17:40:25;6.18;;;1.80;;
69188;SDS011;56302;52.322;5.926;2022-08-11T17:42:52;5.15;;;1.75;;
69188;SDS011;56302;52.322;5.926;2022-08-11T17:45:42;6.50;;;1.70;;
69188;SDS011;56302;52.322;5.926;2022-08-11T17:48:29;3.83;;;1.37;;
69188;SDS011;56302;52.322;5.926;2022-08-11T17:51:08;5.78;;;1.42;;
69188;SDS011;56302;52.322;5.926;2022-08-11T17:53:58;3.78;;;1.60;;
69188;SDS011;56302;52.322;5.926;2022-08-11T17:56:43;3.65;;;1.60;;
69188;SDS011;56302;52.322;5.926;2022-08-11T17:59:28;7.55;;;2.03;;
69188;SDS011;56302;52.322;5.926;2022-08-11T18:02:14;4.37;;;1.30;;
69188;SDS011;56302;52.322;5.926;2022-08-11T18:05:00;5.15;;;1.08;;
69188;SDS011;56302;52.322;5.926;2022-08-11T18:07:29;4.53;;;1.63;;
69188;SDS011;56302;52.322;5.926;2022-08-11T18:10:14;4.20;;;1.45;;
69188;SDS011;56302;52.322;5.926;2022-08-11T18:12:59;6.03;;;1.25;;
69188;SDS011;56302;52.322;5.926;2022-08-11T18:15:43;4.30;;;1.83;;
69188;SDS011;56302;52.322;5.926;2022-08-11T18:18:28;4.25;;;1.58;;
69188;SDS011;56302;52.322;5.926;2022-08-11T18:21:13;7.07;;;1.38;;
69188;SDS011;56302;52.322;5.926;2022-08-11T18:24:09;3.97;;;1.50;;
69188;SDS011;56302;52.322;5.926;2022-08-11T18:26:56;8.50;;;1.63;;
69188;SDS011;56302;52.322;5.926;2022-08-11T18:29:42;6.63;;;1.73;;
69188;SDS011;56302;52.322;5.926;2022-08-11T18:32:31;4.55;;;1.40;;
69188;SDS011;56302;52.322;5.926;2022-08-11T18:35:18;4.20;;;1.45;;
69188;SDS011;56302;52.322;5.926;2022-08-11T18:38:04;4.65;;;1.27;;
69188;SDS011;56302;52.322;5.926;2022-08-11T18:40:52;6.95;;;1.60;;
69188;SDS011;56302;52.322;5.926;2022-08-11T18:43:38;7.40;;;1.30;;
69188;SDS011;56302;52.322;5.926;2022-08-11T18:46:27;7.47;;;1.48;;
69188;SDS011;56302;52.322;5.926;2022-08-11T18:49:16;8.20;;;1.60;;
69188;SDS011;56302;52.322;5.926;2022-08-11T18:52:05;4.57;;;1.40;;
69188;SDS011;56302;52.322;5.926;2022-08-11T18:54:51;6.95;;;1.73;;
69188;SDS011;56302;52.322;5.926;2022-08-11T18:57:41;7.43;;;1.53;;
69188;SDS011;56302;52.322;5.926;2022-08-11T19:00:30;12.93;;;1.60;;
69188;SDS011;56302;52.322;5.926;2022-08-11T19:03:16;8.77;;;1.45;;
69188;SDS011;56302;52.322;5.926;2022-08-11T19:06:03;6.82;;;1.60;;
69188;SDS011;56302;52.322;5.926;2022-08-11T19:08:53;6.75;;;1.70;;
69188;SDS011;56302;52.322;5.926;2022-08-11T19:11:42;7.07;;;1.60;;
69188;SDS011;56302;52.322;5.926;2022-08-11T19:14:28;6.20;;;1.90;;
69188;SDS011;56302;52.322;5.926;2022-08-11T19:17:13;7.57;;;1.70;;
69188;SDS011;56302;52.322;5.926;2022-08-11T19:19:59;11.18;;;1.58;;
69188;SDS011;56302;52.322;5.926;2022-08-11T19:22:47;8.40;;;1.52;;
69188;SDS011;56302;52.322;5.926;2022-08-11T19:25:32;11.93;;;1.67;;
69188;SDS011;56302;52.322;5.926;2022-08-11T19:28:17;8.35;;;1.77;;